Time,TemperatureF,DewpointF,PressureIn,WindDirection,WindDirectionDegrees,WindSpeedMPH,WindSpeedGustMPH,Humidity,HourlyPrecipIn,Conditions,Clouds,dailyrainin,SoftwareType,DateUTC
2013-05-10 00:01:00,56.3,55.2,29.89,SE,134,0.0,0.0,96,0.03,,,0.17,meteohub,2013-05-10 04:01:00,
2013-05-10 00:03:00,56.3,55.2,29.89,SE,134,0.0,0.0,96,0.03,,,0.17,meteohub,2013-05-10 04:03:00,
2013-05-10 00:08:00,56.3,55.4,29.89,SE,134,0.0,0.0,97,0.02,,,0.00,meteohub,2013-05-10 04:08:00,
2013-05-10 00:13:00,56.5,55.6,29.89,SE,134,0.0,0.0,97,0.01,,,0.00,meteohub,2013-05-10 04:13:00,
2013-05-10 00:18:00,56.5,55.6,29.89,SE,134,0.0,0.0,97,0.01,,,0.00,meteohub,2013-05-10 04:18:00,
2013-05-10 00:23:00,56.1,55.2,29.89,SE,134,0.0,0.0,97,0.01,,,0.00,meteohub,2013-05-10 04:23:00,
2013-05-10 00:28:00,55.9,54.9,29.89,SE,134,0.0,0.0,96,0.00,,,0.00,meteohub,2013-05-10 04:28:00,
2013-05-10 00:33:00,55.8,54.7,29.89,SE,134,0.0,0.0,96,0.00,,,0.00,meteohub,2013-05-10 04:33:00,
2013-05-10 00:38:00,55.6,54.7,29.89,SE,134,0.0,0.0,97,0.00,,,0.00,meteohub,2013-05-10 04:38:00,
2013-05-10 00:43:00,55.4,54.3,29.89,SE,134,0.0,0.0,96,0.00,,,0.00,meteohub,2013-05-10 04:43:00,
2013-05-10 00:48:00,55.2,54.1,29.89,SE,134,0.0,0.0,96,0.00,,,0.00,meteohub,2013-05-10 04:48:00,
2013-05-10 00:53:00,55.0,54.1,29.89,SE,134,0.0,0.0,97,0.00,,,0.00,meteohub,2013-05-10 04:53:00,
2013-05-10 00:58:00,54.9,53.8,29.89,SE,134,0.0,0.0,96,0.00,,,0.00,meteohub,2013-05-10 04:58:00,
2013-05-10 01:03:00,54.7,53.6,29.89,SE,134,0.0,0.0,96,0.00,,,0.00,meteohub,2013-05-10 05:03:00,
2013-05-10 01:08:00,54.5,53.6,29.89,SE,134,0.0,0.0,97,0.00,,,0.00,meteohub,2013-05-10 05:08:00,
2013-05-10 01:13:00,54.1,53.1,29.89,SE,134,0.0,0.0,96,0.00,,,0.00,meteohub,2013-05-10 05:13:00,
2013-05-10 01:18:00,54.1,53.1,29.89,SE,134,0.0,0.0,96,0.00,,,0.00,meteohub,2013-05-10 05:18:00,
2013-05-10 01:23:00,54.0,53.1,29.89,SE,134,0.0,0.0,97,0.00,,,0.00,meteohub,2013-05-10 05:23:00,
2013-05-10 01:28:00,54.0,53.1,29.89,SE,134,0.0,0.0,97,0.00,,,0.00,meteohub,2013-05-10 05:28:00,
2013-05-10 01:33:00,54.0,53.1,29.90,SE,134,0.0,0.0,97,0.00,,,0.00,meteohub,2013-05-10 05:33:00,
2013-05-10 01:38:00,54.0,53.1,29.90,SE,134,0.0,0.0,97,0.00,,,0.00,meteohub,2013-05-10 05:38:00,
2013-05-10 01:43:00,54.0,53.1,29.89,SE,134,0.0,0.0,97,0.00,,,0.00,meteohub,2013-05-10 05:43:00,
2013-05-10 01:48:00,54.0,53.1,29.89,SE,134,0.0,0.0,97,0.00,,,0.00,meteohub,2013-05-10 05:48:00,
2013-05-10 01:53:00,54.0,53.1,29.89,SE,134,0.0,0.0,97,0.00,,,0.00,meteohub,2013-05-10 05:53:00,
2013-05-10 01:58:00,54.0,53.1,29.89,SE,134,0.0,0.0,97,0.00,,,0.00,meteohub,2013-05-10 05:58:00,
2013-05-10 02:03:00,54.0,53.1,29.89,SE,134,0.0,0.0,97,0.00,,,0.00,meteohub,2013-05-10 06:03:00,
2013-05-10 02:08:00,54.1,53.2,29.89,SE,134,0.0,0.0,97,0.00,,,0.00,meteohub,2013-05-10 06:08:00,
2013-05-10 02:13:00,54.1,53.2,29.89,SE,134,0.0,0.0,97,0.00,,,0.00,meteohub,2013-05-10 06:13:00,
2013-05-10 02:18:00,54.1,53.2,29.89,SE,134,0.0,0.0,97,0.00,,,0.00,meteohub,2013-05-10 06:18:00,
2013-05-10 02:23:00,54.1,53.2,29.89,SE,134,0.0,0.0,97,0.00,,,0.00,meteohub,2013-05-10 06:23:00,
2013-05-10 02:28:00,54.1,53.2,29.89,SE,134,0.0,0.0,97,0.00,,,0.00,meteohub,2013-05-10 06:28:00,
2013-05-10 02:33:00,54.0,53.1,29.89,SE,134,0.0,0.0,97,0.00,,,0.00,meteohub,2013-05-10 06:33:00,
2013-05-10 02:38:00,53.4,52.5,29.89,SE,134,0.0,0.0,97,0.00,,,0.00,meteohub,2013-05-10 06:38:00,
2013-05-10 02:43:00,53.4,52.5,29.89,SE,134,0.0,0.0,97,0.00,,,0.00,meteohub,2013-05-10 06:43:00,
2013-05-10 02:48:00,53.2,52.3,29.89,SE,134,0.0,0.0,97,0.00,,,0.00,meteohub,2013-05-10 06:48:00,
2013-05-10 02:53:00,53.1,52.2,29.89,SE,134,0.0,0.0,97,0.00,,,0.00,meteohub,2013-05-10 06:53:00,
2013-05-10 02:58:00,52.9,52.0,29.89,SE,134,0.0,1.0,97,0.00,,,0.00,meteohub,2013-05-10 06:58:00,
2013-05-10 03:03:00,53.1,52.2,29.89,SE,134,0.0,1.0,97,0.00,,,0.00,meteohub,2013-05-10 07:03:00,
2013-05-10 03:08:00,53.2,52.3,29.89,SE,134,0.0,1.0,97,0.00,,,0.00,meteohub,2013-05-10 07:08:00,
2013-05-10 03:13:00,53.1,52.2,29.89,SE,134,0.0,0.0,97,0.00,,,0.00,meteohub,2013-05-10 07:13:00,
2013-05-10 03:18:00,53.2,52.3,29.89,SE,134,0.0,0.0,97,0.00,,,0.00,meteohub,2013-05-10 07:18:00,
2013-05-10 03:23:00,53.1,52.2,29.89,SE,134,0.0,0.0,97,0.00,,,0.00,meteohub,2013-05-10 07:23:00,
2013-05-10 03:28:00,52.9,52.0,29.89,SE,134,0.0,0.0,97,0.00,,,0.00,meteohub,2013-05-10 07:28:00,
2013-05-10 03:33:00,52.7,51.8,29.89,SE,134,0.0,0.0,97,0.00,,,0.00,meteohub,2013-05-10 07:33:00,
2013-05-10 03:38:00,52.5,51.6,29.89,SE,134,0.0,0.0,97,0.00,,,0.00,meteohub,2013-05-10 07:38:00,
2013-05-10 03:43:00,52.5,51.6,29.89,SE,134,0.0,0.0,97,0.00,,,0.00,meteohub,2013-05-10 07:43:00,
2013-05-10 03:48:00,52.5,51.6,29.90,SE,134,0.0,0.0,97,0.00,,,0.00,meteohub,2013-05-10 07:48:00,
2013-05-10 03:53:00,52.2,51.3,29.90,SE,134,0.0,1.0,97,0.00,,,0.00,meteohub,2013-05-10 07:53:00,
2013-05-10 03:58:00,52.0,51.1,29.90,SE,134,0.0,1.0,97,0.00,,,0.00,meteohub,2013-05-10 07:58:00,
2013-05-10 04:03:00,52.0,51.1,29.90,SE,134,0.0,1.0,97,0.00,,,0.00,meteohub,2013-05-10 08:03:00,
2013-05-10 04:08:00,52.2,51.3,29.90,SE,134,0.0,0.0,97,0.00,,,0.00,meteohub,2013-05-10 08:08:00,
2013-05-10 04:13:00,52.2,51.3,29.90,SE,134,0.0,0.0,97,0.00,,,0.00,meteohub,2013-05-10 08:13:00,
2013-05-10 04:18:00,52.2,51.3,29.90,SE,134,0.0,1.0,97,0.00,,,0.00,meteohub,2013-05-10 08:18:00,
2013-05-10 04:23:00,52.5,51.6,29.90,SE,134,0.0,1.0,97,0.00,,,0.00,meteohub,2013-05-10 08:23:00,
2013-05-10 04:28:00,52.7,51.8,29.90,SE,134,0.0,1.0,97,0.00,,,0.00,meteohub,2013-05-10 08:28:00,
2013-05-10 04:33:00,52.9,52.0,29.90,SE,134,0.0,1.0,97,0.00,,,0.00,meteohub,2013-05-10 08:33:00,
2013-05-10 04:38:00,52.7,51.8,29.90,SE,134,0.0,1.0,97,0.00,,,0.00,meteohub,2013-05-10 08:38:00,
2013-05-10 04:43:00,52.9,52.0,29.90,SE,134,0.0,1.0,97,0.00,,,0.00,meteohub,2013-05-10 08:43:00,
2013-05-10 04:48:00,52.9,52.0,29.90,SE,134,0.0,1.0,97,0.00,,,0.00,meteohub,2013-05-10 08:48:00,
2013-05-10 04:53:00,52.9,52.0,29.90,SE,134,0.0,0.0,97,0.00,,,0.00,meteohub,2013-05-10 08:53:00,
2013-05-10 04:58:00,52.9,52.0,29.90,SE,134,0.0,0.0,97,0.00,,,0.00,meteohub,2013-05-10 08:58:00,
2013-05-10 05:03:00,52.7,51.8,29.90,SE,134,0.0,0.0,97,0.00,,,0.00,meteohub,2013-05-10 09:03:00,
2013-05-10 05:08:00,52.7,51.8,29.91,SE,134,0.0,0.0,97,0.00,,,0.00,meteohub,2013-05-10 09:08:00,
2013-05-10 05:13:00,52.5,51.6,29.90,SE,134,0.0,0.0,97,0.00,,,0.00,meteohub,2013-05-10 09:13:00,
2013-05-10 05:18:00,52.5,51.6,29.91,SE,134,0.0,0.0,97,0.00,,,0.00,meteohub,2013-05-10 09:18:00,
2013-05-10 05:23:00,52.3,51.4,29.91,SE,134,0.0,0.0,97,0.00,,,0.00,meteohub,2013-05-10 09:23:00,
2013-05-10 05:28:00,52.3,51.4,29.91,SE,134,0.0,0.0,97,0.00,,,0.00,meteohub,2013-05-10 09:28:00,
2013-05-10 05:33:00,52.3,51.4,29.91,SE,134,0.0,0.0,97,0.00,,,0.00,meteohub,2013-05-10 09:33:00,
2013-05-10 05:38:00,52.2,51.3,29.91,SE,134,0.0,0.0,97,0.00,,,0.00,meteohub,2013-05-10 09:38:00,
2013-05-10 05:43:00,52.2,51.3,29.91,SE,134,0.0,0.0,97,0.00,,,0.00,meteohub,2013-05-10 09:43:00,
2013-05-10 05:48:00,52.2,51.3,29.91,SE,134,0.0,0.0,97,0.00,,,0.00,meteohub,2013-05-10 09:48:00,
2013-05-10 05:53:00,52.2,51.3,29.92,SE,134,0.0,0.0,97,0.00,,,0.00,meteohub,2013-05-10 09:53:00,
2013-05-10 05:58:00,52.2,51.3,29.92,SE,134,0.0,0.0,97,0.00,,,0.00,meteohub,2013-05-10 09:58:00,
2013-05-10 06:03:00,52.3,51.4,29.92,SE,134,0.0,0.0,97,0.00,,,0.00,meteohub,2013-05-10 10:03:00,
2013-05-10 06:08:00,52.3,51.4,29.92,SE,134,0.0,0.0,97,0.00,,,0.00,meteohub,2013-05-10 10:08:00,
2013-05-10 06:13:00,52.5,51.6,29.92,SE,134,0.0,0.0,97,0.00,,,0.00,meteohub,2013-05-10 10:13:00,
2013-05-10 06:18:00,52.7,51.8,29.92,SE,134,0.0,0.0,97,0.00,,,0.00,meteohub,2013-05-10 10:18:00,
2013-05-10 06:23:00,52.7,51.8,29.92,SE,134,0.0,0.0,97,0.00,,,0.00,meteohub,2013-05-10 10:23:00,
2013-05-10 06:28:00,52.7,51.8,29.92,SE,134,0.0,0.0,97,0.00,,,0.00,meteohub,2013-05-10 10:28:00,
2013-05-10 06:33:00,52.5,51.6,29.92,SW,216,0.0,0.0,97,0.00,,,0.00,meteohub,2013-05-10 10:33:00,
2013-05-10 06:38:00,53.1,52.2,29.92,WNW,294,0.0,2.0,97,0.00,,,0.00,meteohub,2013-05-10 10:38:00,
2013-05-10 06:43:00,53.2,52.3,29.93,WNW,294,0.0,2.0,97,0.00,,,0.00,meteohub,2013-05-10 10:43:00,
2013-05-10 06:48:00,53.2,52.3,29.93,WNW,294,0.0,2.0,97,0.00,,,0.00,meteohub,2013-05-10 10:48:00,
2013-05-10 06:53:00,53.4,52.5,29.93,WNW,294,0.0,1.0,97,0.00,,,0.00,meteohub,2013-05-10 10:53:00,
2013-05-10 06:58:00,53.8,52.9,29.93,WNW,303,0.0,1.0,97,0.00,,,0.00,meteohub,2013-05-10 10:58:00,
2013-05-10 07:03:00,53.8,52.9,29.93,WNW,303,0.0,1.0,97,0.00,,,0.00,meteohub,2013-05-10 11:03:00,
2013-05-10 07:08:00,54.0,53.1,29.93,WNW,303,0.0,1.0,97,0.00,,,0.00,meteohub,2013-05-10 11:08:00,
2013-05-10 07:13:00,54.3,53.4,29.93,WNW,303,1.0,1.0,97,0.00,,,0.00,meteohub,2013-05-10 11:13:00,
2013-05-10 07:18:00,54.3,53.4,29.94,WNW,299,3.0,3.0,97,0.00,,,0.00,meteohub,2013-05-10 11:18:00,
2013-05-10 07:23:00,54.7,53.8,29.94,WNW,294,0.0,4.0,97,0.00,,,0.00,meteohub,2013-05-10 11:23:00,
2013-05-10 07:28:00,54.9,54.0,29.94,WNW,294,0.0,4.0,97,0.00,,,0.00,meteohub,2013-05-10 11:28:00,
2013-05-10 07:33:00,55.0,54.1,29.94,WNW,294,0.0,4.0,97,0.00,,,0.00,meteohub,2013-05-10 11:33:00,
2013-05-10 07:38:00,55.2,54.3,29.94,WNW,294,1.0,2.0,97,0.00,,,0.00,meteohub,2013-05-10 11:38:00,
2013-05-10 07:43:00,55.6,54.7,29.94,WNW,294,2.0,2.0,97,0.00,,,0.00,meteohub,2013-05-10 11:43:00,
2013-05-10 07:48:00,55.8,54.9,29.94,WNW,294,0.0,3.0,97,0.00,,,0.00,meteohub,2013-05-10 11:48:00,
2013-05-10 07:53:00,56.1,55.2,29.94,WNW,290,2.0,3.0,97,0.00,,,0.00,meteohub,2013-05-10 11:53:00,
2013-05-10 07:59:00,56.5,55.9,29.94,WNW,290,1.0,4.0,98,0.00,,,0.00,meteohub,2013-05-10 11:59:00,
2013-05-10 08:04:00,56.8,55.9,29.94,WNW,290,0.0,4.0,97,0.00,,,0.00,meteohub,2013-05-10 12:04:00,
2013-05-10 08:09:00,56.8,55.9,29.94,WNW,290,1.0,4.0,97,0.00,,,0.00,meteohub,2013-05-10 12:09:00,
2013-05-10 08:14:00,57.2,56.3,29.94,WNW,290,0.0,3.0,97,0.00,,,0.00,meteohub,2013-05-10 12:14:00,
2013-05-10 08:19:00,57.6,56.7,29.94,WNW,290,0.0,3.0,97,0.00,,,0.00,meteohub,2013-05-10 12:19:00,
2013-05-10 08:24:00,58.3,57.4,29.95,WNW,290,0.0,3.0,97,0.00,,,0.00,meteohub,2013-05-10 12:24:00,
2013-05-10 08:29:00,58.8,57.9,29.94,WNW,290,0.0,3.0,97,0.00,,,0.00,meteohub,2013-05-10 12:29:00,
2013-05-10 08:34:00,59.0,57.9,29.95,WNW,290,0.0,3.0,96,0.00,,,0.00,meteohub,2013-05-10 12:34:00,
2013-05-10 08:39:00,59.4,58.3,29.95,WNW,290,0.0,3.0,96,0.00,,,0.00,meteohub,2013-05-10 12:39:00,
2013-05-10 08:44:00,59.7,57.9,29.95,WNW,290,0.0,3.0,94,0.00,,,0.00,meteohub,2013-05-10 12:44:00,
2013-05-10 08:49:00,60.4,59.0,29.95,WNW,290,0.0,2.0,95,0.00,,,0.00,meteohub,2013-05-10 12:49:00,
2013-05-10 08:54:00,60.6,58.3,29.94,WNW,290,0.0,2.0,92,0.00,,,0.00,meteohub,2013-05-10 12:54:00,
2013-05-10 08:59:00,61.7,58.5,29.94,WNW,288,0.0,2.0,89,0.00,,,0.00,meteohub,2013-05-10 12:59:00,
2013-05-10 09:04:00,62.6,58.1,29.94,WNW,286,1.0,2.0,85,0.00,,,0.00,meteohub,2013-05-10 13:04:00,
2013-05-10 09:09:00,63.5,58.8,29.94,West,278,3.0,3.0,85,0.00,,,0.00,meteohub,2013-05-10 13:09:00,
2013-05-10 09:14:00,63.9,58.3,29.94,WSW,256,0.0,3.0,82,0.00,,,0.00,meteohub,2013-05-10 13:14:00,
2013-05-10 09:19:00,64.2,57.9,29.94,West,278,0.0,3.0,80,0.00,,,0.00,meteohub,2013-05-10 13:19:00,
2013-05-10 09:24:00,64.8,58.8,29.94,West,273,0.0,3.0,81,0.00,,,0.00,meteohub,2013-05-10 13:24:00,
2013-05-10 09:29:00,64.9,57.6,29.94,WSW,250,0.0,4.0,77,0.00,,,0.00,meteohub,2013-05-10 13:29:00,
2013-05-10 09:34:00,65.5,58.8,29.94,WSW,250,0.0,5.0,79,0.00,,,0.00,meteohub,2013-05-10 13:34:00,
2013-05-10 09:39:00,65.7,57.9,29.94,WSW,258,2.0,5.0,76,0.00,,,0.00,meteohub,2013-05-10 13:39:00,
2013-05-10 09:44:00,66.4,57.9,29.94,West,276,0.0,5.0,74,0.00,,,0.00,meteohub,2013-05-10 13:44:00,
2013-05-10 09:49:00,66.7,57.7,29.93,West,276,1.0,4.0,73,0.00,,,0.00,meteohub,2013-05-10 13:49:00,
2013-05-10 09:54:00,67.6,57.6,29.94,West,278,0.0,4.0,70,0.00,,,0.00,meteohub,2013-05-10 13:54:00,
2013-05-10 09:59:00,68.7,58.1,29.94,West,273,1.0,4.0,69,0.00,,,0.00,meteohub,2013-05-10 13:59:00,
2013-05-10 10:04:00,68.9,57.6,29.94,West,275,2.0,4.0,67,0.00,,,0.00,meteohub,2013-05-10 14:04:00,
2013-05-10 10:09:00,70.0,59.4,29.94,WSW,257,0.0,4.0,69,0.00,,,0.00,meteohub,2013-05-10 14:09:00,
2013-05-10 10:14:00,69.8,56.1,29.94,NW,313,0.0,4.0,62,0.00,,,0.00,meteohub,2013-05-10 14:14:00,
2013-05-10 10:19:00,70.2,57.9,29.94,NW,312,1.0,3.0,65,0.00,,,0.00,meteohub,2013-05-10 14:19:00,
2013-05-10 10:24:00,72.5,58.3,29.94,NW,309,2.0,3.0,61,0.00,,,0.00,meteohub,2013-05-10 14:24:00,
2013-05-10 10:29:00,70.3,56.7,29.94,West,260,2.0,3.0,62,0.00,,,0.00,meteohub,2013-05-10 14:29:00,
2013-05-10 10:34:00,71.1,56.8,29.94,West,267,0.0,2.0,61,0.00,,,0.00,meteohub,2013-05-10 14:34:00,
2013-05-10 10:39:00,71.8,56.1,29.94,West,271,2.0,5.0,58,0.00,,,0.00,meteohub,2013-05-10 14:39:00,
2013-05-10 10:44:00,71.8,57.2,29.94,WNW,283,0.0,5.0,60,0.00,,,0.00,meteohub,2013-05-10 14:44:00,
2013-05-10 10:49:00,71.1,56.8,29.94,SSE,155,0.0,3.0,61,0.00,,,0.00,meteohub,2013-05-10 14:49:00,
2013-05-10 10:54:00,73.4,57.7,29.94,WNW,297,0.0,3.0,58,0.00,,,0.00,meteohub,2013-05-10 14:54:00,
2013-05-10 10:59:00,73.4,57.7,29.94,WNW,297,1.0,3.0,58,0.00,,,0.00,meteohub,2013-05-10 14:59:00,
2013-05-10 11:04:00,75.6,59.7,29.94,WNW,285,0.0,3.0,58,0.00,,,0.00,meteohub,2013-05-10 15:04:00,
2013-05-10 11:09:00,75.0,57.7,29.94,WNW,285,0.0,4.0,55,0.00,,,0.00,meteohub,2013-05-10 15:09:00,
2013-05-10 11:14:00,74.7,56.5,29.94,WNW,285,0.0,4.0,53,0.00,,,0.00,meteohub,2013-05-10 15:14:00,
2013-05-10 11:19:00,75.0,55.6,29.94,WNW,283,1.0,3.0,51,0.00,,,0.00,meteohub,2013-05-10 15:19:00,
2013-05-10 11:24:00,75.4,57.0,29.94,WNW,283,0.0,5.0,53,0.00,,,0.00,meteohub,2013-05-10 15:24:00,
2013-05-10 11:29:00,75.4,57.0,29.94,WNW,283,1.0,5.0,53,0.00,,,0.00,meteohub,2013-05-10 15:29:00,
2013-05-10 11:34:00,75.6,56.7,29.94,WNW,284,2.0,5.0,52,0.00,,,0.00,meteohub,2013-05-10 15:34:00,
2013-05-10 11:39:00,74.8,57.6,29.94,WNW,290,3.0,5.0,55,0.00,,,0.00,meteohub,2013-05-10 15:39:00,
2013-05-10 11:44:00,74.8,55.6,29.94,West,272,1.0,5.0,51,0.00,,,0.00,meteohub,2013-05-10 15:44:00,
2013-05-10 11:49:00,76.5,57.6,29.94,WNW,292,1.0,5.0,52,0.00,,,0.00,meteohub,2013-05-10 15:49:00,
2013-05-10 11:54:00,74.7,54.3,29.94,NW,317,0.0,5.0,49,0.00,,,0.00,meteohub,2013-05-10 15:54:00,
2013-05-10 11:59:00,76.5,55.4,29.94,NW,317,1.0,5.0,48,0.00,,,0.00,meteohub,2013-05-10 15:59:00,
2013-05-10 12:04:00,76.8,57.9,29.94,NW,313,0.0,3.0,52,0.00,,,0.00,meteohub,2013-05-10 16:04:00,
2013-05-10 12:09:00,76.6,56.1,29.93,NW,306,2.0,3.0,49,0.00,,,0.00,meteohub,2013-05-10 16:09:00,
2013-05-10 12:14:00,77.7,56.5,29.93,WNW,294,0.0,5.0,48,0.00,,,0.00,meteohub,2013-05-10 16:14:00,
2013-05-10 12:19:00,77.2,53.6,29.93,NW,306,0.0,5.0,44,0.00,,,0.00,meteohub,2013-05-10 16:19:00,
2013-05-10 12:24:00,76.3,53.4,29.93,SSE,160,1.0,5.0,45,0.00,,,0.00,meteohub,2013-05-10 16:24:00,
2013-05-10 12:29:00,75.4,55.9,29.93,SSW,211,0.0,4.0,51,0.00,,,0.00,meteohub,2013-05-10 16:29:00,
2013-05-10 12:34:00,77.2,55.9,29.93,WNW,290,2.0,4.0,48,0.00,,,0.00,meteohub,2013-05-10 16:34:00,
2013-05-10 12:39:00,77.4,55.0,29.93,West,267,0.0,4.0,46,0.00,,,0.00,meteohub,2013-05-10 16:39:00,
2013-05-10 12:44:00,77.5,56.3,29.92,South,190,0.0,4.0,48,0.00,,,0.00,meteohub,2013-05-10 16:44:00,
2013-05-10 12:49:00,77.4,53.8,29.92,NW,309,1.0,4.0,44,0.00,,,0.00,meteohub,2013-05-10 16:49:00,
2013-05-10 12:54:00,78.1,56.3,29.92,NW,304,1.0,4.0,47,0.00,,,0.00,meteohub,2013-05-10 16:54:00,
2013-05-10 12:59:00,79.2,54.7,29.92,WNW,285,0.0,4.0,43,0.00,,,0.00,meteohub,2013-05-10 16:59:00,
2013-05-10 13:04:00,79.5,56.8,29.91,West,279,1.0,4.0,46,0.00,,,0.00,meteohub,2013-05-10 17:04:00,
2013-05-10 13:09:00,80.1,56.8,29.92,WNW,299,2.0,4.0,45,0.00,,,0.00,meteohub,2013-05-10 17:09:00,
2013-05-10 13:14:00,78.3,53.2,29.91,WNW,299,0.0,4.0,42,0.00,,,0.00,meteohub,2013-05-10 17:14:00,
2013-05-10 13:19:00,79.3,53.6,29.91,WNW,299,1.0,4.0,41,0.00,,,0.00,meteohub,2013-05-10 17:19:00,
2013-05-10 13:24:00,80.2,54.3,29.91,WNW,297,0.0,4.0,41,0.00,,,0.00,meteohub,2013-05-10 17:24:00,
2013-05-10 13:29:00,81.1,53.8,29.91,WNW,294,2.0,3.0,39,0.00,,,0.00,meteohub,2013-05-10 17:29:00,
2013-05-10 13:34:00,79.5,55.0,29.91,West,265,0.0,3.0,43,0.00,,,0.00,meteohub,2013-05-10 17:34:00,
2013-05-10 13:39:00,79.0,54.5,29.91,West,264,0.0,5.0,43,0.00,,,0.00,meteohub,2013-05-10 17:39:00,
2013-05-10 13:44:00,80.1,56.1,29.91,NNW,347,0.0,5.0,44,0.00,,,0.00,meteohub,2013-05-10 17:44:00,
2013-05-10 13:49:00,81.1,53.8,29.91,WNW,292,1.0,5.0,39,0.00,,,0.00,meteohub,2013-05-10 17:49:00,
2013-05-10 13:54:00,79.2,53.4,29.91,NW,316,0.0,4.0,41,0.00,,,0.00,meteohub,2013-05-10 17:54:00,
2013-05-10 13:59:00,79.3,54.9,29.91,NW,316,2.0,4.0,43,0.00,,,0.00,meteohub,2013-05-10 17:59:00,
2013-05-10 14:04:00,79.3,54.9,29.91,WNW,295,3.0,4.0,43,0.00,,,0.00,meteohub,2013-05-10 18:04:00,
2013-05-10 14:09:00,79.0,54.5,29.91,NW,313,0.0,5.0,43,0.00,,,0.00,meteohub,2013-05-10 18:09:00,
2013-05-10 14:14:00,78.1,55.0,29.91,WNW,283,0.0,5.0,45,0.00,,,0.00,meteohub,2013-05-10 18:14:00,
2013-05-10 14:19:00,79.0,55.2,29.91,West,281,0.0,5.0,44,0.00,,,0.00,meteohub,2013-05-10 18:19:00,
2013-05-10 14:24:00,79.9,56.7,29.91,WNW,290,2.0,3.0,45,0.00,,,0.00,meteohub,2013-05-10 18:24:00,
2013-05-10 14:29:00,81.0,57.0,29.91,WNW,290,2.0,3.0,44,0.00,,,0.00,meteohub,2013-05-10 18:29:00,
2013-05-10 14:34:00,79.9,55.4,29.90,WNW,290,0.0,4.0,43,0.00,,,0.00,meteohub,2013-05-10 18:34:00,
2013-05-10 14:39:00,77.5,55.0,29.91,WNW,290,0.0,4.0,46,0.00,,,0.00,meteohub,2013-05-10 18:39:00,
2013-05-10 14:44:00,76.6,53.8,29.90,WNW,290,0.0,3.0,45,0.00,,,0.00,meteohub,2013-05-10 18:44:00,
2013-05-10 14:53:00,77.2,54.1,29.90,WNW,290,0.0,2.0,45,0.00,,,0.00,meteohub,2013-05-10 18:53:00,
2013-05-10 14:58:00,77.9,54.3,29.90,WNW,283,2.0,2.0,44,0.00,,,0.00,meteohub,2013-05-10 18:58:00,
2013-05-10 15:03:00,77.9,54.9,29.91,WNW,282,1.0,4.0,45,0.00,,,0.00,meteohub,2013-05-10 19:03:00,
2013-05-10 15:08:00,79.9,53.4,29.91,West,278,6.0,6.0,40,0.00,,,0.00,meteohub,2013-05-10 19:08:00,
2013-05-10 15:13:00,79.3,52.9,29.91,NW,315,1.0,7.0,40,0.00,,,0.00,meteohub,2013-05-10 19:13:00,
2013-05-10 15:18:00,78.1,53.1,29.91,NW,315,1.0,7.0,42,0.00,,,0.00,meteohub,2013-05-10 19:18:00,
2013-05-10 15:23:00,77.9,52.3,29.91,West,280,2.0,7.0,41,0.00,,,0.00,meteohub,2013-05-10 19:23:00,
2013-05-10 15:28:00,78.1,53.1,29.90,WNW,288,3.0,4.0,42,0.00,,,0.00,meteohub,2013-05-10 19:28:00,
2013-05-10 15:33:00,78.6,53.6,29.90,West,269,2.0,4.0,42,0.00,,,0.00,meteohub,2013-05-10 19:33:00,
2013-05-10 15:38:00,79.5,51.6,29.90,WNW,286,1.0,4.0,38,0.00,,,0.00,meteohub,2013-05-10 19:38:00,
2013-05-10 15:43:00,78.6,50.9,29.90,WNW,289,3.0,6.0,38,0.00,,,0.00,meteohub,2013-05-10 19:43:00,
2013-05-10 15:48:00,79.7,52.5,29.90,WNW,290,1.0,6.0,39,0.00,,,0.00,meteohub,2013-05-10 19:48:00,
2013-05-10 15:53:00,80.2,53.8,29.90,West,268,1.0,6.0,40,0.00,,,0.00,meteohub,2013-05-10 19:53:00,
2013-05-10 15:58:00,80.1,54.3,29.90,WSW,248,0.0,6.0,41,0.00,,,0.00,meteohub,2013-05-10 19:58:00,
2013-05-10 16:03:00,79.0,54.0,29.90,West,277,3.0,5.0,42,0.00,,,0.00,meteohub,2013-05-10 20:03:00,
2013-05-10 16:08:00,79.3,54.3,29.90,West,272,0.0,5.0,42,0.00,,,0.00,meteohub,2013-05-10 20:08:00,
2013-05-10 16:13:00,79.2,54.7,29.90,West,281,1.0,5.0,43,0.00,,,0.00,meteohub,2013-05-10 20:13:00,
2013-05-10 16:18:00,79.3,54.3,29.90,West,281,1.0,5.0,42,0.00,,,0.00,meteohub,2013-05-10 20:18:00,
2013-05-10 16:23:00,78.8,54.5,29.89,WNW,291,2.0,4.0,43,0.00,,,0.00,meteohub,2013-05-10 20:23:00,
2013-05-10 16:28:00,78.4,53.4,29.89,WNW,296,0.0,4.0,42,0.00,,,0.00,meteohub,2013-05-10 20:28:00,
2013-05-10 16:33:00,78.6,52.9,29.89,North,10,3.0,3.0,41,0.00,,,0.00,meteohub,2013-05-10 20:33:00,
2013-05-10 16:38:00,78.4,52.2,29.89,West,267,0.0,3.0,40,0.00,,,0.00,meteohub,2013-05-10 20:38:00,
2013-05-10 16:43:00,79.0,50.5,29.89,WNW,293,0.0,3.0,37,0.00,,,0.00,meteohub,2013-05-10 20:43:00,
2013-05-10 16:48:00,78.8,52.5,29.89,WNW,293,0.0,4.0,40,0.00,,,0.00,meteohub,2013-05-10 20:48:00,
2013-05-10 16:53:00,78.6,52.3,29.89,WNW,286,2.0,4.0,40,0.00,,,0.00,meteohub,2013-05-10 20:53:00,
2013-05-10 16:58:00,78.8,51.1,29.89,WNW,288,1.0,4.0,38,0.00,,,0.00,meteohub,2013-05-10 20:58:00,
2013-05-10 17:03:00,79.3,51.4,29.89,WNW,288,1.0,4.0,38,0.00,,,0.00,meteohub,2013-05-10 21:03:00,
2013-05-10 17:08:00,79.0,49.8,29.88,WNW,296,2.0,4.0,36,0.00,,,0.00,meteohub,2013-05-10 21:08:00,
2013-05-10 17:13:00,78.6,50.9,29.89,WNW,296,3.0,3.0,38,0.00,,,0.00,meteohub,2013-05-10 21:13:00,
2013-05-10 17:18:00,78.4,50.7,29.89,WNW,296,1.0,5.0,38,0.00,,,0.00,meteohub,2013-05-10 21:18:00,
2013-05-10 17:23:00,78.6,50.9,29.89,WNW,296,1.0,5.0,38,0.00,,,0.00,meteohub,2013-05-10 21:23:00,
2013-05-10 17:28:00,78.3,52.0,29.88,WNW,292,0.0,5.0,40,0.00,,,0.00,meteohub,2013-05-10 21:28:00,
2013-05-10 17:33:00,78.1,50.4,29.88,WNW,292,2.0,3.0,38,0.00,,,0.00,meteohub,2013-05-10 21:33:00,
2013-05-10 17:38:00,77.7,50.7,29.88,West,275,2.0,3.0,39,0.00,,,0.00,meteohub,2013-05-10 21:38:00,
2013-05-10 17:43:00,77.5,51.3,29.88,WNW,287,0.0,4.0,40,0.00,,,0.00,meteohub,2013-05-10 21:43:00,
2013-05-10 17:48:00,77.5,52.0,29.88,WNW,287,0.0,4.0,41,0.00,,,0.00,meteohub,2013-05-10 21:48:00,
2013-05-10 17:53:00,77.4,50.5,29.88,WNW,287,0.0,4.0,39,0.00,,,0.00,meteohub,2013-05-10 21:53:00,
2013-05-10 17:58:00,77.2,49.6,29.88,WNW,287,0.0,4.0,38,0.00,,,0.00,meteohub,2013-05-10 21:58:00,
2013-05-10 17:59:00,77.0,50.2,29.88,WNW,287,0.0,4.0,39,0.00,,,0.00,meteohub,2013-05-10 21:59:00,
2013-05-10 18:04:00,76.8,51.3,29.88,WNW,288,0.0,2.0,41,0.00,,,0.00,meteohub,2013-05-10 22:04:00,
2013-05-10 18:09:00,77.2,50.4,29.88,WNW,287,0.0,3.0,39,0.00,,,0.00,meteohub,2013-05-10 22:09:00,
2013-05-10 18:14:00,77.0,51.4,29.87,WNW,286,0.0,3.0,41,0.00,,,0.00,meteohub,2013-05-10 22:14:00,
2013-05-10 18:19:00,76.6,50.5,29.87,NW,311,0.0,3.0,40,0.00,,,0.00,meteohub,2013-05-10 22:19:00,
2013-05-10 18:24:00,75.9,51.3,29.87,NW,311,0.0,3.0,42,0.00,,,0.00,meteohub,2013-05-10 22:24:00,
2013-05-10 18:29:00,75.2,52.3,29.88,NW,311,0.0,3.0,45,0.00,,,0.00,meteohub,2013-05-10 22:29:00,
2013-05-10 18:34:00,74.8,50.9,29.88,NW,313,0.0,3.0,43,0.00,,,0.00,meteohub,2013-05-10 22:34:00,
2013-05-10 18:39:00,74.8,51.4,29.88,NW,313,0.0,2.0,44,0.00,,,0.00,meteohub,2013-05-10 22:39:00,
2013-05-10 18:44:00,74.3,52.7,29.88,NW,313,0.0,2.0,47,0.00,,,0.00,meteohub,2013-05-10 22:44:00,
2013-05-10 18:49:00,74.5,53.4,29.88,NW,313,0.0,2.0,48,0.00,,,0.00,meteohub,2013-05-10 22:49:00,
2013-05-10 18:54:00,74.7,53.1,29.89,NW,313,1.0,2.0,47,0.00,,,0.00,meteohub,2013-05-10 22:54:00,
2013-05-10 18:59:00,74.1,53.2,29.89,NW,313,0.0,1.0,48,0.00,,,0.00,meteohub,2013-05-10 22:59:00,
2013-05-10 19:04:00,73.9,54.1,29.89,NW,315,0.0,1.0,50,0.00,,,0.00,meteohub,2013-05-10 23:04:00,
2013-05-10 19:09:00,73.6,53.2,29.89,NW,315,0.0,1.0,49,0.00,,,0.00,meteohub,2013-05-10 23:09:00,
2013-05-10 19:14:00,73.6,53.8,29.89,NW,315,0.0,1.0,50,0.00,,,0.00,meteohub,2013-05-10 23:14:00,
2013-05-10 19:19:00,73.2,54.0,29.89,NW,315,0.0,1.0,51,0.00,,,0.00,meteohub,2013-05-10 23:19:00,
2013-05-10 19:24:00,72.7,54.5,29.89,NW,315,0.0,0.0,53,0.00,,,0.00,meteohub,2013-05-10 23:24:00,
2013-05-10 19:29:00,72.1,57.0,29.89,NW,315,0.0,0.0,59,0.00,,,0.00,meteohub,2013-05-10 23:29:00,
2013-05-10 19:34:00,71.8,56.1,29.89,NW,315,0.0,0.0,58,0.00,,,0.00,meteohub,2013-05-10 23:34:00,
2013-05-10 19:39:00,70.9,54.9,29.89,NW,315,0.0,0.0,57,0.00,,,0.00,meteohub,2013-05-10 23:39:00,
2013-05-10 19:44:00,69.6,55.6,29.90,NW,315,0.0,0.0,61,0.00,,,0.00,meteohub,2013-05-10 23:44:00,
2013-05-10 19:49:00,69.4,54.0,29.89,NW,315,0.0,1.0,58,0.00,,,0.00,meteohub,2013-05-10 23:49:00,
2013-05-10 19:54:00,69.4,54.0,29.89,NW,315,0.0,1.0,58,0.00,,,0.00,meteohub,2013-05-10 23:54:00,
2013-05-10 19:59:00,69.1,54.7,29.90,NW,315,0.0,1.0,60,0.00,,,0.00,meteohub,2013-05-10 23:59:00,
2013-05-10 20:04:00,69.4,54.5,29.89,ESE,110,0.0,1.0,59,0.00,,,0.00,meteohub,2013-05-11 00:04:00,
2013-05-10 20:09:00,69.6,53.8,29.89,ESE,110,0.0,4.0,57,0.00,,,0.00,meteohub,2013-05-11 00:09:00,
2013-05-10 20:14:00,69.6,54.1,29.90,ESE,117,0.0,4.0,58,0.00,,,0.00,meteohub,2013-05-11 00:14:00,
2013-05-10 20:19:00,69.6,54.1,29.90,ESE,117,0.0,4.0,58,0.00,,,0.00,meteohub,2013-05-11 00:19:00,
2013-05-10 20:24:00,69.4,54.0,29.90,ESE,117,0.0,1.0,58,0.00,,,0.00,meteohub,2013-05-11 00:24:00,
2013-05-10 20:29:00,69.3,53.8,29.90,ESE,117,0.0,1.0,58,0.00,,,0.00,meteohub,2013-05-11 00:29:00,
2013-05-10 20:34:00,69.1,54.1,29.90,SSW,192,0.0,1.0,59,0.00,,,0.00,meteohub,2013-05-11 00:34:00,
2013-05-10 20:39:00,68.9,53.6,29.90,SSE,160,0.0,4.0,58,0.00,,,0.00,meteohub,2013-05-11 00:39:00,
2013-05-10 20:44:00,68.9,54.0,29.90,ESE,117,0.0,4.0,59,0.00,,,0.00,meteohub,2013-05-11 00:44:00,
2013-05-10 20:49:00,68.5,53.6,29.90,NNE,27,0.0,4.0,59,0.00,,,0.00,meteohub,2013-05-11 00:49:00,
2013-05-10 20:54:00,68.4,54.0,29.90,NNE,27,0.0,2.0,60,0.00,,,0.00,meteohub,2013-05-11 00:54:00,
2013-05-10 20:59:00,67.8,54.0,29.90,NNE,27,0.0,2.0,61,0.00,,,0.00,meteohub,2013-05-11 00:59:00,
2013-05-10 21:04:00,67.6,53.8,29.91,NNE,27,0.0,1.0,61,0.00,,,0.00,meteohub,2013-05-11 01:04:00,
2013-05-10 21:09:00,67.5,53.6,29.91,NNE,26,0.0,1.0,61,0.00,,,0.00,meteohub,2013-05-11 01:09:00,
2013-05-10 21:14:00,67.3,53.8,29.90,NNE,26,0.0,1.0,62,0.00,,,0.00,meteohub,2013-05-11 01:14:00,
2013-05-10 21:19:00,67.1,53.6,29.91,NNE,26,0.0,1.0,62,0.00,,,0.00,meteohub,2013-05-11 01:19:00,
2013-05-10 21:24:00,67.1,54.1,29.91,NNE,27,0.0,1.0,63,0.00,,,0.00,meteohub,2013-05-11 01:24:00,
2013-05-10 21:29:00,66.7,53.8,29.91,NNE,27,0.0,1.0,63,0.00,,,0.00,meteohub,2013-05-11 01:29:00,
2013-05-10 21:34:00,66.4,53.8,29.91,NNE,26,0.0,1.0,64,0.00,,,0.00,meteohub,2013-05-11 01:34:00,
2013-05-10 21:39:00,66.0,54.0,29.91,NNE,26,0.0,0.0,65,0.00,,,0.00,meteohub,2013-05-11 01:39:00,
2013-05-10 21:44:00,65.8,54.1,29.91,NNE,26,0.0,0.0,66,0.00,,,0.00,meteohub,2013-05-11 01:44:00,
2013-05-10 21:49:00,66.0,54.0,29.91,NNE,27,0.0,0.0,65,0.00,,,0.00,meteohub,2013-05-11 01:49:00,
2013-05-10 21:54:00,66.0,54.0,29.91,NNE,26,0.0,0.0,65,0.00,,,0.00,meteohub,2013-05-11 01:54:00,
2013-05-10 21:59:00,65.8,54.1,29.91,NNW,346,0.0,0.0,66,0.00,,,0.00,meteohub,2013-05-11 01:59:00,
2013-05-10 22:04:00,65.8,54.1,29.91,NNW,346,0.0,1.0,66,0.00,,,0.00,meteohub,2013-05-11 02:04:00,
2013-05-10 22:09:00,65.7,54.0,29.91,East,80,0.0,1.0,66,0.00,,,0.00,meteohub,2013-05-11 02:09:00,
2013-05-10 22:14:00,65.7,54.0,29.90,ESE,120,0.0,2.0,66,0.00,,,0.00,meteohub,2013-05-11 02:14:00,
2013-05-10 22:19:00,65.5,53.8,29.90,SE,133,0.0,2.0,66,0.00,,,0.00,meteohub,2013-05-11 02:19:00,
2013-05-10 22:24:00,65.5,54.3,29.91,SSE,154,0.0,2.0,67,0.00,,,0.00,meteohub,2013-05-11 02:24:00,
2013-05-10 22:29:00,65.5,54.3,29.91,SSE,154,0.0,2.0,67,0.00,,,0.00,meteohub,2013-05-11 02:29:00,
2013-05-10 22:34:00,65.1,54.3,29.91,SSE,154,0.0,2.0,68,0.00,,,0.00,meteohub,2013-05-11 02:34:00,
2013-05-10 22:39:00,64.9,54.1,29.91,SW,217,0.0,2.0,68,0.00,,,0.00,meteohub,2013-05-11 02:39:00,
2013-05-10 22:44:00,64.9,54.5,29.90,SW,217,0.0,2.0,69,0.00,,,0.00,meteohub,2013-05-11 02:44:00,
2013-05-10 22:49:00,64.8,54.3,29.91,SW,217,0.0,2.0,69,0.00,,,0.00,meteohub,2013-05-11 02:49:00,
2013-05-10 22:54:00,64.8,54.7,29.91,WNW,294,0.0,2.0,70,0.00,,,0.00,meteohub,2013-05-11 02:54:00,
2013-05-10 22:59:00,64.4,54.3,29.91,SE,135,0.0,1.0,70,0.00,,,0.00,meteohub,2013-05-11 02:59:00,
2013-05-10 23:04:00,64.2,54.7,29.90,SSW,192,0.0,1.0,71,0.00,,,0.00,meteohub,2013-05-11 03:04:00,
2013-05-10 23:09:00,64.2,54.3,29.90,South,182,0.0,3.0,70,0.00,,,0.00,meteohub,2013-05-11 03:09:00,
2013-05-10 23:14:00,64.4,54.3,29.91,SSE,148,0.0,3.0,70,0.00,,,0.00,meteohub,2013-05-11 03:14:00,
2013-05-10 23:19:00,64.2,54.3,29.90,SSE,149,0.0,2.0,70,0.00,,,0.00,meteohub,2013-05-11 03:19:00,
2013-05-10 23:24:00,64.2,54.3,29.90,SSE,149,0.0,2.0,70,0.00,,,0.00,meteohub,2013-05-11 03:24:00,
2013-05-10 23:29:00,64.0,54.1,29.90,SSE,153,0.0,2.0,70,0.00,,,0.00,meteohub,2013-05-11 03:29:00,
2013-05-10 23:34:00,63.9,54.3,29.91,SSE,160,0.0,1.0,71,0.00,,,0.00,meteohub,2013-05-11 03:34:00,
2013-05-10 23:39:00,63.9,54.3,29.90,SSE,160,0.0,1.0,71,0.00,,,0.00,meteohub,2013-05-11 03:39:00,
2013-05-10 23:44:00,63.7,54.5,29.90,SSE,160,0.0,1.0,72,0.00,,,0.00,meteohub,2013-05-11 03:44:00,
2013-05-10 23:49:00,63.3,54.5,29.90,SSE,160,0.0,1.0,73,0.00,,,0.00,meteohub,2013-05-11 03:49:00,
2013-05-10 23:54:00,63.7,54.5,29.90,NW,325,0.0,1.0,72,0.00,,,0.00,meteohub,2013-05-11 03:54:00,
2013-05-10 23:59:00,63.7,54.5,29.90,NW,325,0.0,1.0,72,0.00,,,0.00,meteohub,2013-05-11 03:59:00,